• Join FlightAware (Why Join?)
  • Login
  • US Flag 
05:24AM EDT


 

Airport Tracker/Info


-or-


 

Live Flight TrackerFlight Track Log ✈ USC105 ✈ 09-Apr-2013 ✈ KDPA - KYIP

Flight Track Log - Related Links

Times and Time Zones

All times are in EDT time to prevent confusion due to time zone crossing. See the USC105 flight status page for this flight to view local times or setup timezone preferences in your user account.

Time Position Orientation Groundspeed Altitude Reporting Facility
EDT Latitude Longitude Course Direction KTS MPH feet Rate Location/Type
05:37AM 41.9167 -88.2500 153° Southeast 13 15 800  Level Chicago TRACON
05:39AM 41.8883 -88.2164 139° Southeast 107 123 2,200 660 Climbing Chicago Center
05:40AM 41.8617 -88.1942 148° Southeast 110 127 2,900 300 Climbing Chicago Center
05:41AM 41.8306 -88.1642 144° Southeast 123 142 2,900 240 Level Chicago Center
05:42AM 41.9386 -87.8965 151° Southeast  Level Estimated
05:42AM 41.8119 -88.1175 118° Southeast 145 167 3,400  Level Chicago Center
05:43AM 41.9448 -87.8261 153° Southeast  Level Estimated
05:43AM 41.8189 -88.0600 81° East 154 177 4,100  Level Chicago Center
05:44AM 41.8250 -88.0050 82° East 152 175 4,700 540 Climbing Chicago Center
05:45AM 41.8314 -87.9478 81° East 153 176 5,300 540 Climbing Chicago Center
05:46AM 41.8394 -87.8919 79° East 153 176 5,900 300 Climbing Chicago Center
05:47AM 41.8475 -87.8308 80° East 158 182 6,000  Climbing Chicago Center
05:48AM 41.8522 -87.7589 85° East 176 203 5,900 -60 Descending Chicago Center
05:49AM 41.8608 -87.6889 81° East 189 217 5,900  Level Chicago Center
05:50AM 41.8669 -87.6211 83° East 186 214 5,900  Level Chicago Center
05:51AM 41.8833 -87.5500 73° East 192 221 5,900  Level Chicago TRACON
05:52AM 41.8833 -87.4833 90° East 191 220 5,900  Level Chicago TRACON
05:53AM 41.8833 -87.4167 90° East 192 221 5,900  Level Chicago TRACON
05:54AM 41.8975 -87.3386 76° East 193 222 5,900 60 Level Chicago Center
05:55AM 41.9053 -87.2689 81° East 191 220 6,100 240 Climbing Chicago Center
05:56AM 41.9119 -87.2053 82° East 176 203 6,500 360 Climbing Chicago Center
05:57AM 41.9181 -87.1406 83° East 175 201 6,900 180 Climbing Chicago Center
05:58AM 41.9253 -87.0733 82° East 179 206 6,900  Level Chicago Center
05:59AM 41.9325 -87.0022 82° East 188 216 7,000  Climbing Chicago Center
06:00AM 41.9397 -86.9328 82° East 189 217 7,000  Level Chicago Center
06:01AM 41.9475 -86.8617 82° East 191 220 7,000  Level Chicago Center
06:02AM 41.9539 -86.7894 83° East 194 223 7,000  Level Chicago Center
06:03AM 41.9633 -86.7006 82° East 199 229 7,000  Level Chicago Center
06:04AM 41.9689 -86.6381 83° East 200 230 7,000  Level Chicago Center
06:05AM 41.9772 -86.5619 82° East 203 234 7,000  Level Chicago Center
06:06AM 41.9842 -86.4878 83° East 202 232 7,000  Level Chicago Center
06:07AM 41.9925 -86.4119 82° East 204 235 7,000  Level Chicago Center
06:08AM 41.9997 -86.3336 83° East 209 241 7,000  Level Chicago Center
06:09AM 42.0081 -86.2519 82° East 218 251 7,000  Level Chicago Center
06:10AM 42.0156 -86.1728 83° East 216 249 7,000  Level Chicago Center
06:11AM 42.0233 -86.0936 82° East 214 246 7,000  Level Chicago Center
06:12AM 42.0306 -86.0172 83° East 209 241 7,000  Level Chicago Center
06:13AM 42.0394 -85.9267 82° East 206 237 7,000  Level Chicago Center
06:14AM 42.0469 -85.8503 82° East 206 237 7,000  Level Chicago Center
06:15AM 42.0544 -85.7747 82° East 204 235 7,000  Level Chicago Center
06:16AM 42.0606 -85.6992 84° East 204 235 7,000  Level Chicago Center
06:17AM 42.0678 -85.6231 83° East 204 235 7,000  Level Chicago Center
06:18AM 42.0742 -85.5461 84° East 206 237 7,000  Level Chicago Center
06:19AM 42.0819 -85.4697 82° East 206 237 7,000  Level Chicago Center
06:20AM 42.0889 -85.3925 83° East 207 238 7,000  Level Chicago Center
06:21AM 42.0961 -85.3158 83° East 207 238 7,000  Level Chicago Center
06:22AM 42.1025 -85.2386 84° East 207 238 7,000  Level Chicago Center
06:23AM 42.1094 -85.1600 83° East 210 242 7,000  Level Chicago Center
06:24AM 42.1167 -85.0814 83° East 210 242 7,000  Level Chicago Center
06:25AM 42.1233 -85.0031 83° East 210 242 7,000  Level Chicago Center
06:26AM 42.1297 -84.9242 84° East 212 244 7,000  Level Chicago Center
06:27AM 42.1364 -84.8458 83° East 211 243 7,000  Level Chicago Center
06:28AM 42.1431 -84.7669 83° East 211 243 7,000  Level Chicago Center
06:29AM 42.1497 -84.6872 84° East 213 245 7,000  Level Chicago Center
06:30AM 42.1561 -84.6094 84° East 212 244 7,000  Level Chicago Center
06:31AM 42.1631 -84.5275 83° East 210 242 7,000  Level Chicago Center
06:32AM 42.1689 -84.4492 84° East 211 243 7,000  Level Chicago Center
06:33AM 42.1733 -84.4106 81° East 208 239 7,000  Level Cleveland Center
06:34AM 42.1783 -84.3269 85° East 207 238 7,000  Level Cleveland Center
06:34AM 42.1822 -84.2653 85° East 202 232 7,000  Level Cleveland Center
06:35AM 42.1889 -84.1928 83° East 198 228 7,000  Level Cleveland Center
06:37AM 42.1953 -84.1203 83° East 191 220 7,000  Level Cleveland Center
06:38AM 42.2017 -84.0478 83° East 191 220 7,000 -540 Level Cleveland Center
06:39AM 42.2247 -83.9733 67° East 219 252 6,000 -780 Descending Cleveland Center
06:40AM 42.2583 -83.8911 61° Northeast 216 249 5,300 -420 Descending Cleveland Center
06:41AM 42.2919 -83.8058 62° Northeast 201 231 5,000 -480 Descending Cleveland Center
06:42AM 42.3167 -83.7453 61° Northeast 199 229 4,400 -660 Descending Cleveland Center
06:43AM 42.3392 -83.6817 64° Northeast 209 241 3,900 -660 Descending Cleveland Center
06:44AM 42.3728 -83.5989 61° Northeast 201 231 3,000 -480 Descending Cleveland Center
06:45AM 42.3883 -83.5631 60° Northeast 184 212 3,000 -60 Level Cleveland Center
06:46AM 42.3967 -83.4819 82° East 161 185 2,900 -300 Descending Cleveland Center
06:47AM 42.3711 -83.4189 119° Southeast 198 228 2,300 -300 Descending Cleveland Center
06:48AM 42.3403 -83.3981 153° Southeast 154 177 2,400 -60 Climbing Cleveland Center
06:49AM 42.3039 -83.4356 217° Southwest 167 192 2,200 -420 Descending Cleveland Center
06:50AM 42.2756 -83.4822 231° Southwest 142 163 1,600 -600 Descending Cleveland Center